Victoria, Virginia
Current Conditions -  °F | °C
As of 10:15 PM on Sunday 21 Dec 2014 (Local Time) from KW31 Reporting Station
Clear Clear  
Wind Chill: 36°   Ceiling: Unl
Heat Index: 36°   Visibility: 10mi
Dew Point: 30°   Wind: 0mph
Humidity: 77%   Direction: NA
Pressure: 30.27"   Gusts: NA
Location:  36.99°N, 78.23°W
Report Text: KW31 220315Z AUTO 00000KT 10SM CLR 02/M01 A3027 RMK AO1 T00241013
Loading
Personal Weather Stations






























Interactive Weather Map New forecast layout! Learn more

10-Day Weather Forecast

Advertisements
Track Severe Weather on mobile